createdAt,value
2022-12-15T00:00:23.570Z,96.02
2022-12-15T00:03:10.358Z,95.99
2022-12-15T00:05:57.270Z,96.01
2022-12-15T00:08:43.900Z,96.00
2022-12-15T00:11:30.237Z,96.07
2022-12-15T00:14:16.843Z,95.91
2022-12-15T00:17:03.396Z,95.86
2022-12-15T00:19:50.167Z,95.93
2022-12-15T00:22:36.656Z,96.03
2022-12-15T00:25:23.643Z,96.07
2022-12-15T00:28:10.086Z,96.01
2022-12-15T00:31:02.116Z,95.85
2022-12-15T00:33:49.189Z,95.83
2022-12-15T00:36:35.715Z,96.15
2022-12-15T00:39:04.282Z,96.46
2022-12-15T00:41:32.340Z,95.98
2022-12-15T00:44:00.231Z,95.82
2022-12-15T00:46:46.878Z,96.17
2022-12-15T00:49:33.783Z,95.98
2022-12-15T00:52:20.538Z,96.21
2022-12-15T00:55:07.365Z,96.17
2022-12-15T00:57:53.973Z,96.19
2022-12-15T01:00:41.008Z,95.82
2022-12-15T01:03:31.218Z,95.81
2022-12-15T01:06:18.410Z,96.45
2022-12-15T01:09:04.624Z,96.31
2022-12-15T01:11:51.387Z,96.13
2022-12-15T01:14:38.199Z,96.11
2022-12-15T01:17:24.677Z,96.42
2022-12-15T01:20:11.853Z,96.99
2022-12-15T01:22:40.767Z,96.96
2022-12-15T01:25:10.437Z,97.38
2022-12-15T01:27:38.542Z,96.72
2022-12-15T01:30:08.366Z,96.47
2022-12-15T01:32:39.371Z,95.74
2022-12-15T01:35:10.883Z,95.88
2022-12-15T01:37:39.455Z,95.63
2022-12-15T01:40:30.259Z,95.21
2022-12-15T01:42:58.315Z,95.11
2022-12-15T01:45:29.189Z,95.10
2022-12-15T01:48:03.248Z,94.54
2022-12-15T01:50:37.674Z,95.15
2022-12-15T01:53:06.110Z,95.00
2022-12-15T01:55:34.044Z,94.34
2022-12-15T01:58:06.790Z,94.48
2022-12-15T02:00:35.358Z,94.79
2022-12-15T02:03:06.674Z,95.15
2022-12-15T02:05:35.652Z,95.37
2022-12-15T02:08:05.337Z,94.87
2022-12-15T02:11:14.466Z,95.23
2022-12-15T02:14:06.691Z,95.07
2022-12-15T02:17:29.458Z,94.86
2022-12-15T02:20:28.171Z,95.25
2022-12-15T02:23:14.230Z,95.24
2022-12-15T02:26:03.233Z,95.44
2022-12-15T02:28:55.377Z,95.91
2022-12-15T02:31:49.933Z,95.52
2022-12-15T02:34:18.350Z,94.97
2022-12-15T02:36:59.487Z,95.49
2022-12-15T02:39:27.615Z,95.49
2022-12-15T02:41:55.526Z,95.04
2022-12-15T02:44:35.605Z,95.70
2022-12-15T02:47:06.554Z,95.52
2022-12-15T02:49:49.994Z,95.33
2022-12-15T02:52:26.984Z,95.18
2022-12-15T02:55:05.395Z,95.01
2022-12-15T02:57:44.628Z,95.54
2022-12-15T03:00:15.725Z,95.69
2022-12-15T03:02:51.402Z,95.60
2022-12-15T03:05:22.698Z,95.06
2022-12-15T03:07:54.871Z,95.50
2022-12-15T03:10:25.667Z,95.21
2022-12-15T03:12:54.734Z,95.55
2022-12-15T03:15:22.633Z,95.51
2022-12-15T03:17:50.517Z,94.84
2022-12-15T03:20:18.385Z,95.00
2022-12-15T03:22:46.287Z,94.83
2022-12-15T03:25:14.443Z,95.50
2022-12-15T03:27:42.409Z,95.36
2022-12-15T03:30:10.839Z,95.47
2022-12-15T03:32:38.746Z,95.31
2022-12-15T03:35:07.477Z,95.32
2022-12-15T03:37:35.568Z,95.44
2022-12-15T03:40:03.765Z,95.83
2022-12-15T03:42:49.899Z,96.07
2022-12-15T03:45:23.332Z,95.75
2022-12-15T03:47:51.919Z,95.99
2022-12-15T03:50:22.466Z,96.46
2022-12-15T03:53:03.490Z,96.23
2022-12-15T03:55:31.442Z,96.11
2022-12-15T03:57:59.426Z,95.95
2022-12-15T04:00:27.521Z,96.03
2022-12-15T04:02:55.815Z,96.09
2022-12-15T04:05:29.549Z,95.92
2022-12-15T04:07:59.419Z,96.18
2022-12-15T04:10:33.998Z,96.32
2022-12-15T04:13:08.034Z,96.19
2022-12-15T04:15:37.786Z,96.44
2022-12-15T04:18:07.484Z,96.08
2022-12-15T04:20:35.825Z,96.30
2022-12-15T04:23:03.722Z,96.32
2022-12-15T04:25:50.298Z,96.43
2022-12-15T04:28:36.928Z,95.86
2022-12-15T04:31:29.761Z,96.07
2022-12-15T04:34:20.965Z,96.35
2022-12-15T04:37:10.651Z,95.82
2022-12-15T04:40:01.646Z,96.29
2022-12-15T04:42:51.043Z,95.90
2022-12-15T04:45:40.878Z,95.63
2022-12-15T04:48:28.221Z,95.45
2022-12-15T04:51:14.990Z,95.83
2022-12-15T04:54:04.546Z,96.35
2022-12-15T04:56:51.144Z,95.76
2022-12-15T04:59:38.077Z,95.87
2022-12-15T05:02:24.692Z,95.78
2022-12-15T05:05:12.329Z,95.61
2022-12-15T05:07:59.223Z,95.45
2022-12-15T05:10:45.637Z,95.51
2022-12-15T05:13:32.691Z,95.69
2022-12-15T05:16:19.691Z,95.60
2022-12-15T05:19:06.101Z,95.58
2022-12-15T05:21:52.706Z,95.51
2022-12-15T05:24:39.340Z,95.66
2022-12-15T05:27:26.013Z,95.84
2022-12-15T05:30:12.401Z,95.72
2022-12-15T05:32:40.544Z,95.69
2022-12-15T05:35:08.525Z,95.74
2022-12-15T05:37:36.438Z,95.55
2022-12-15T05:40:05.431Z,96.03
2022-12-15T05:42:34.364Z,95.86
2022-12-15T05:45:02.226Z,95.70
2022-12-15T05:47:31.038Z,95.61
2022-12-15T05:49:58.897Z,95.81
2022-12-15T05:52:27.097Z,96.23
2022-12-15T05:54:55.029Z,95.94
2022-12-15T05:57:22.988Z,95.50
2022-12-15T05:59:50.837Z,95.56
2022-12-15T06:02:18.842Z,95.40
2022-12-15T06:04:46.791Z,95.64
2022-12-15T06:07:14.738Z,95.61
2022-12-15T06:09:42.667Z,95.72
2022-12-15T06:12:10.556Z,95.97
2022-12-15T06:14:38.461Z,95.98
2022-12-15T06:17:06.400Z,95.95
2022-12-15T06:19:34.309Z,95.58
2022-12-15T06:22:02.343Z,96.32
2022-12-15T06:24:30.205Z,95.91
2022-12-15T06:26:58.146Z,95.47
2022-12-15T06:29:26.018Z,95.59
2022-12-15T06:31:53.950Z,96.08
2022-12-15T06:34:21.869Z,95.43
2022-12-15T06:36:50.360Z,95.50
2022-12-15T06:39:18.382Z,95.30
2022-12-15T06:41:46.670Z,95.50
2022-12-15T06:44:16.166Z,95.43
2022-12-15T06:46:45.741Z,95.42
2022-12-15T06:49:14.538Z,95.79
2022-12-15T06:51:44.043Z,95.52
2022-12-15T06:54:12.027Z,95.24
2022-12-15T06:56:39.941Z,95.73
2022-12-15T06:59:08.497Z,95.26
2022-12-15T07:01:36.612Z,95.31
2022-12-15T07:04:05.794Z,95.42
2022-12-15T07:06:38.656Z,95.44
2022-12-15T07:09:10.738Z,95.38
2022-12-15T07:11:38.859Z,95.37
2022-12-15T07:14:06.841Z,95.34
2022-12-15T07:16:34.901Z,95.59
2022-12-15T07:19:02.887Z,95.36
2022-12-15T07:21:30.967Z,95.68
2022-12-15T07:23:59.733Z,95.53
2022-12-15T07:26:28.571Z,95.66
2022-12-15T07:28:56.680Z,96.05
2022-12-15T07:31:24.860Z,95.67
2022-12-15T07:33:54.541Z,95.83
2022-12-15T07:36:22.727Z,95.88
2022-12-15T07:38:51.609Z,96.00
2022-12-15T07:41:20.638Z,96.10
2022-12-15T07:43:49.411Z,95.27
2022-12-15T07:46:18.237Z,94.93
2022-12-15T07:48:50.237Z,95.15
2022-12-15T07:51:20.620Z,95.35
2022-12-15T07:53:51.277Z,95.17
2022-12-15T07:56:20.318Z,95.68
2022-12-15T07:58:48.301Z,96.69
2022-12-15T08:01:17.004Z,94.95
2022-12-15T08:03:45.440Z,94.91
2022-12-15T08:06:14.762Z,95.46
2022-12-15T08:08:44.752Z,94.98
2022-12-15T08:11:19.592Z,95.47
2022-12-15T08:14:05.632Z,95.04
2022-12-15T08:16:36.733Z,95.02
2022-12-15T08:19:05.565Z,95.13
2022-12-15T08:21:34.044Z,95.25
2022-12-15T08:24:02.315Z,94.67
2022-12-15T08:26:31.799Z,95.14
2022-12-15T08:29:40.398Z,95.29
2022-12-15T08:31:53.039Z,95.30
2022-12-15T08:34:21.564Z,95.09
2022-12-15T08:36:49.495Z,94.64
2022-12-15T08:39:17.622Z,94.83
2022-12-15T08:41:45.533Z,95.26
2022-12-15T08:44:13.896Z,95.29
2022-12-15T08:46:42.354Z,94.94
2022-12-15T08:49:10.580Z,94.69
2022-12-15T08:51:38.466Z,94.60
2022-12-15T08:54:08.098Z,94.92
2022-12-15T08:56:36.084Z,94.96
2022-12-15T08:59:04.049Z,94.24
2022-12-15T09:01:33.079Z,94.59
2022-12-15T09:04:04.114Z,94.53
2022-12-15T09:06:34.827Z,94.68
2022-12-15T09:09:07.294Z,94.42
2022-12-15T09:11:35.485Z,94.38
2022-12-15T09:14:04.105Z,94.01
2022-12-15T09:16:32.193Z,94.46
2022-12-15T09:19:00.394Z,94.39
2022-12-15T09:21:30.271Z,94.83
2022-12-15T09:24:01.834Z,94.74
2022-12-15T09:26:33.583Z,94.52
2022-12-15T09:29:02.461Z,93.96
2022-12-15T09:31:34.055Z,94.15
2022-12-15T09:34:02.403Z,94.47
2022-12-15T09:36:32.840Z,94.62
2022-12-15T09:39:02.884Z,94.67
2022-12-15T09:41:33.668Z,94.40
2022-12-15T09:44:15.116Z,94.77
2022-12-15T09:47:23.114Z,93.98
2022-12-15T09:49:57.991Z,93.97
2022-12-15T09:52:29.517Z,93.79
2022-12-15T09:54:58.162Z,93.85
2022-12-15T09:58:23.178Z,94.03
2022-12-15T10:01:01.191Z,93.40
2022-12-15T10:03:55.134Z,93.65
2022-12-15T10:06:33.936Z,93.72
2022-12-15T10:09:22.887Z,94.63
2022-12-15T10:11:57.653Z,94.32
2022-12-15T10:14:37.705Z,94.00
2022-12-15T10:17:21.450Z,94.21
2022-12-15T10:19:56.359Z,94.17
2022-12-15T10:22:26.557Z,93.78
2022-12-15T10:25:11.152Z,93.65
2022-12-15T10:27:49.309Z,93.67
2022-12-15T10:30:17.602Z,93.33
2022-12-15T10:32:57.573Z,93.10
2022-12-15T10:35:30.264Z,93.39
2022-12-15T10:38:00.231Z,93.39
2022-12-15T10:40:51.996Z,93.84
2022-12-15T10:43:35.534Z,93.44
2022-12-15T10:46:07.452Z,93.45
2022-12-15T10:48:36.616Z,94.20
2022-12-15T10:51:21.511Z,93.21
2022-12-15T10:54:06.678Z,93.32
2022-12-15T10:56:35.027Z,93.30
2022-12-15T10:59:23.028Z,93.45
2022-12-15T11:01:52.100Z,94.22
2022-12-15T11:04:26.198Z,94.12
2022-12-15T11:07:02.698Z,93.73
2022-12-15T11:09:37.121Z,93.97
2022-12-15T11:12:38.873Z,93.76
2022-12-15T11:15:21.763Z,93.46
2022-12-15T11:18:01.775Z,93.62
2022-12-15T11:20:40.548Z,93.28
2022-12-15T11:23:34.506Z,93.39
2022-12-15T11:26:22.874Z,92.99
2022-12-15T11:28:58.226Z,93.00
2022-12-15T11:31:37.914Z,92.86
2022-12-15T11:34:14.821Z,93.16
2022-12-15T11:36:55.171Z,93.23
2022-12-15T11:39:29.114Z,92.72
2022-12-15T11:42:10.912Z,92.49
2022-12-15T11:44:53.007Z,93.12
2022-12-15T11:47:40.717Z,92.62
2022-12-15T11:50:31.327Z,92.98
2022-12-15T11:53:19.693Z,92.85
2022-12-15T11:56:07.093Z,93.09
2022-12-15T11:58:59.730Z,92.97
2022-12-15T12:04:39.996Z,93.29
2022-12-15T12:07:22.498Z,93.65
2022-12-15T12:10:03.657Z,93.09
2022-12-15T12:12:45.679Z,93.64
2022-12-15T12:15:37.596Z,93.97
2022-12-15T12:18:33.723Z,92.80
2022-12-15T12:21:07.933Z,93.93
2022-12-15T12:23:46.945Z,93.52
2022-12-15T12:26:25.025Z,93.99
2022-12-15T12:29:00.698Z,94.05
2022-12-15T12:32:04.054Z,93.83
2022-12-15T12:34:51.090Z,93.54
2022-12-15T12:37:40.578Z,93.51
2022-12-15T12:40:21.558Z,94.16
2022-12-15T12:42:59.039Z,92.67
2022-12-15T12:45:52.293Z,92.32
2022-12-15T12:48:35.409Z,93.13
2022-12-15T12:51:13.770Z,92.41
2022-12-15T12:53:41.991Z,93.06
2022-12-15T12:56:40.726Z,92.07
2022-12-15T12:59:30.379Z,92.47
2022-12-15T13:02:14.457Z,91.68
2022-12-15T13:04:44.419Z,91.25
2022-12-15T13:07:29.337Z,91.08
2022-12-15T13:10:09.189Z,91.79
2022-12-15T13:12:54.524Z,92.24
2022-12-15T13:15:39.300Z,92.90
2022-12-15T13:18:19.690Z,92.49
2022-12-15T13:20:50.725Z,93.08
2022-12-15T13:23:21.904Z,93.13
2022-12-15T13:25:55.987Z,93.67
2022-12-15T13:28:49.154Z,93.34
2022-12-15T13:31:21.750Z,93.60
2022-12-15T13:33:50.114Z,93.07
2022-12-15T13:36:37.116Z,92.59
2022-12-15T13:39:11.187Z,93.56
2022-12-15T13:42:31.737Z,94.03
2022-12-15T13:44:53.342Z,93.31
2022-12-15T13:47:31.273Z,93.45
2022-12-15T13:50:12.829Z,93.77
2022-12-15T13:53:18.006Z,93.74
2022-12-15T13:55:52.477Z,93.06
2022-12-15T13:58:22.045Z,93.11
2022-12-15T14:00:56.233Z,93.38
2022-12-15T14:03:24.900Z,93.56
2022-12-15T14:05:55.875Z,92.92
2022-12-15T14:08:27.112Z,92.62
2022-12-15T14:10:57.807Z,92.90
2022-12-15T14:13:30.174Z,92.80
2022-12-15T14:16:19.093Z,93.04
2022-12-15T14:19:03.899Z,92.99
2022-12-15T14:21:31.820Z,92.92
2022-12-15T14:24:36.922Z,92.90
2022-12-15T14:26:48.970Z,93.10
2022-12-15T14:29:19.324Z,92.98
2022-12-15T14:31:51.203Z,92.88
2022-12-15T14:34:23.988Z,92.62
2022-12-15T14:36:55.862Z,92.62
2022-12-15T14:39:34.608Z,92.81
2022-12-15T14:42:03.474Z,92.90
2022-12-15T14:47:30.897Z,93.53
2022-12-15T14:50:01.737Z,93.80
2022-12-15T14:52:37.307Z,93.32
2022-12-15T14:55:20.845Z,93.14
2022-12-15T14:57:53.474Z,93.08
2022-12-15T15:00:32.627Z,93.13
2022-12-15T15:03:04.869Z,92.98
2022-12-15T15:03:27.545Z,92.85
2022-12-15T15:05:59.486Z,92.96
2022-12-15T15:08:37.318Z,93.36
2022-12-15T15:11:23.172Z,92.71
2022-12-15T15:13:59.036Z,92.80
2022-12-15T15:16:27.754Z,92.92
2022-12-15T15:18:56.517Z,93.32
2022-12-15T15:21:27.610Z,93.02
2022-12-15T15:24:02.591Z,93.33
2022-12-15T15:26:31.475Z,93.70
2022-12-15T15:28:59.524Z,92.92
2022-12-15T15:31:41.409Z,93.40
2022-12-15T15:34:09.906Z,93.71
2022-12-15T15:36:39.018Z,93.27
2022-12-15T15:39:15.072Z,93.63
2022-12-15T15:41:43.048Z,93.36
2022-12-15T15:44:14.752Z,93.27
2022-12-15T15:46:51.671Z,92.87
2022-12-15T15:49:21.879Z,92.26
2022-12-15T15:51:49.759Z,92.74
2022-12-15T15:54:23.205Z,93.02
2022-12-15T15:56:51.665Z,93.04
2022-12-15T15:59:21.181Z,92.27
2022-12-15T16:01:57.705Z,91.75
2022-12-15T16:04:26.354Z,92.03
2022-12-15T16:06:54.597Z,92.61
2022-12-15T16:09:24.847Z,92.79
2022-12-15T16:11:54.444Z,92.47
2022-12-15T16:14:22.314Z,92.65
2022-12-15T16:16:50.220Z,92.79
2022-12-15T16:19:18.141Z,93.03
2022-12-15T16:21:50.780Z,92.84
2022-12-15T16:24:19.529Z,91.91
2022-12-15T16:26:50.031Z,91.89
2022-12-15T16:29:20.734Z,92.28
2022-12-15T16:31:48.901Z,92.76
2022-12-15T16:34:19.133Z,92.12
2022-12-15T16:36:48.395Z,91.64
2022-12-15T16:39:28.966Z,92.49
2022-12-15T16:41:57.285Z,91.94
2022-12-15T16:44:27.353Z,92.32
2022-12-15T16:46:55.450Z,93.30
2022-12-15T16:49:23.564Z,92.45
2022-12-15T16:51:53.792Z,90.99
2022-12-15T16:54:27.224Z,91.21
2022-12-15T16:56:57.581Z,90.87
2022-12-15T16:59:35.401Z,90.37
2022-12-15T17:02:27.630Z,90.68
2022-12-15T17:04:55.956Z,91.50
2022-12-15T17:07:27.016Z,91.62
2022-12-15T17:09:55.886Z,91.90
2022-12-15T17:12:23.781Z,91.94
2022-12-15T17:14:51.699Z,91.04
2022-12-15T17:17:20.057Z,90.56
2022-12-15T17:20:27.532Z,90.66
2022-12-15T17:22:38.321Z,91.30
2022-12-15T17:25:13.581Z,91.99
2022-12-15T17:27:41.545Z,90.44
2022-12-15T17:30:14.442Z,91.89
2022-12-15T17:32:44.154Z,91.34
2022-12-15T17:35:12.504Z,91.57
2022-12-15T17:37:41.026Z,90.89
2022-12-15T17:40:23.794Z,90.97
2022-12-15T17:42:51.725Z,91.02
2022-12-15T17:45:24.452Z,90.88
2022-12-15T17:47:52.875Z,91.10
2022-12-15T17:50:20.805Z,91.00
2022-12-15T17:52:48.843Z,90.77
2022-12-15T17:55:27.909Z,90.84
2022-12-15T17:57:59.177Z,90.97
2022-12-15T18:00:29.828Z,90.75
2022-12-15T18:03:00.307Z,90.95
2022-12-15T18:05:30.261Z,90.99
2022-12-15T18:08:01.655Z,91.62
2022-12-15T18:10:38.446Z,91.83
2022-12-15T18:13:30.324Z,92.01
2022-12-15T18:16:04.123Z,91.78
2022-12-15T18:18:32.161Z,91.78
2022-12-15T18:21:03.449Z,92.23
2022-12-15T18:23:32.478Z,91.80
2022-12-15T18:26:03.089Z,92.11
2022-12-15T18:28:34.003Z,91.53
2022-12-15T18:31:21.824Z,91.42
2022-12-15T18:33:50.275Z,90.74
2022-12-15T18:36:20.024Z,90.98
2022-12-15T18:38:48.005Z,90.94
2022-12-15T18:41:18.092Z,90.67
2022-12-15T18:43:46.301Z,91.32
2022-12-15T18:46:20.336Z,90.75
2022-12-15T18:48:48.276Z,90.60
2022-12-15T18:51:21.686Z,90.69
2022-12-15T18:53:49.816Z,90.91
2022-12-15T18:56:21.483Z,90.52
2022-12-15T18:58:49.643Z,90.76
2022-12-15T19:01:17.738Z,91.38
2022-12-15T19:03:45.680Z,90.93
2022-12-15T19:06:23.954Z,90.49
2022-12-15T19:08:53.701Z,91.24
2022-12-15T19:11:31.244Z,90.88
2022-12-15T19:14:00.658Z,90.78
2022-12-15T19:16:52.359Z,90.82
2022-12-15T19:19:38.860Z,91.42
2022-12-15T19:22:30.014Z,91.70
2022-12-15T19:24:59.073Z,91.66
2022-12-15T19:27:27.145Z,91.53
2022-12-15T19:29:55.821Z,91.66
2022-12-15T19:32:24.161Z,91.67
2022-12-15T19:34:53.232Z,92.02
2022-12-15T19:37:27.583Z,92.00
2022-12-15T19:39:58.093Z,91.78
2022-12-15T19:42:31.605Z,91.88
2022-12-15T19:45:01.554Z,91.01
2022-12-15T19:47:29.885Z,90.88
2022-12-15T19:49:57.791Z,90.93
2022-12-15T19:52:26.858Z,90.98
2022-12-15T19:54:54.828Z,90.89
2022-12-15T19:57:22.690Z,91.22
2022-12-15T19:59:51.069Z,91.68
2022-12-15T20:02:21.088Z,90.91
2022-12-15T20:04:49.123Z,90.92
2022-12-15T20:07:33.369Z,90.87
2022-12-15T20:10:03.015Z,91.17
2022-12-15T20:12:31.736Z,91.28
2022-12-15T20:14:59.685Z,91.20
2022-12-15T20:17:28.150Z,91.07
2022-12-15T20:19:55.985Z,91.33
2022-12-15T20:22:24.456Z,90.82
2022-12-15T20:24:52.305Z,90.53
2022-12-15T20:27:20.259Z,90.72
2022-12-15T20:29:48.187Z,90.82
2022-12-15T20:32:19.842Z,90.90
2022-12-15T20:34:48.635Z,90.41
2022-12-15T20:37:19.134Z,91.13
2022-12-15T20:39:49.444Z,90.36
2022-12-15T20:42:22.005Z,90.15
2022-12-15T20:44:50.070Z,90.17
2022-12-15T20:47:23.009Z,90.71
2022-12-15T20:49:52.869Z,90.32
2022-12-15T20:52:23.509Z,90.34
2022-12-15T20:54:53.485Z,90.64
2022-12-15T20:57:21.499Z,90.35
2022-12-15T20:59:49.482Z,90.60
2022-12-15T21:02:21.540Z,90.37
2022-12-15T21:04:50.769Z,90.32
2022-12-15T21:07:18.900Z,90.74
2022-12-15T21:09:46.841Z,90.45
2022-12-15T21:12:27.542Z,90.20
2022-12-15T21:14:55.438Z,90.71
2022-12-15T21:17:25.795Z,90.10
2022-12-15T21:19:54.869Z,89.96
2022-12-15T21:22:26.587Z,90.53
2022-12-15T21:24:57.391Z,90.09
2022-12-15T21:27:25.352Z,89.64
2022-12-15T21:29:53.399Z,90.02
2022-12-15T21:32:21.489Z,89.36
2022-12-15T21:34:50.044Z,89.85
2022-12-15T21:37:27.272Z,89.48
2022-12-15T21:39:56.376Z,89.50
2022-12-15T21:42:24.705Z,90.54
2022-12-15T21:44:53.018Z,89.57
2022-12-15T21:47:20.843Z,89.26
2022-12-15T21:49:48.790Z,89.92
2022-12-15T21:52:17.509Z,89.77
2022-12-15T21:54:45.465Z,89.80
2022-12-15T21:57:13.817Z,89.10
2022-12-15T21:59:42.490Z,89.92
2022-12-15T22:02:26.937Z,89.52
2022-12-15T22:04:55.304Z,89.21
2022-12-15T22:07:23.419Z,89.87
2022-12-15T22:09:51.813Z,89.97
2022-12-15T22:12:21.947Z,90.08
2022-12-15T22:14:49.881Z,89.99
2022-12-15T22:17:21.893Z,89.81
2022-12-15T22:19:49.796Z,90.01
2022-12-15T22:22:36.049Z,90.39
2022-12-15T22:25:04.306Z,89.72
2022-12-15T22:27:33.476Z,90.33
2022-12-15T22:30:01.355Z,88.77
2022-12-15T22:32:30.377Z,89.48
2022-12-15T22:34:58.279Z,89.55
2022-12-15T22:37:26.486Z,89.34
2022-12-15T22:39:54.418Z,89.84
2022-12-15T22:42:22.627Z,89.53
2022-12-15T22:44:51.230Z,89.71
2022-12-15T22:47:19.763Z,90.37
2022-12-15T22:49:47.722Z,90.41
2022-12-15T22:52:18.977Z,89.77
2022-12-15T22:54:47.978Z,90.01
2022-12-15T22:57:22.467Z,89.63
2022-12-15T23:00:00.785Z,89.36
2022-12-15T23:02:33.385Z,89.18
2022-12-15T23:05:02.094Z,90.03
2022-12-15T23:07:30.345Z,90.46
2022-12-15T23:10:17.054Z,89.60
2022-12-15T23:12:44.984Z,89.89
2022-12-15T23:15:31.687Z,89.78
2022-12-15T23:17:59.629Z,89.78
2022-12-15T23:20:27.500Z,89.63
2022-12-15T23:22:55.423Z,89.69
2022-12-15T23:25:23.312Z,89.65
2022-12-15T23:27:51.574Z,89.92
2022-12-15T23:30:20.054Z,89.94
2022-12-15T23:32:48.177Z,90.08
2022-12-15T23:35:16.370Z,89.92
2022-12-15T23:37:44.460Z,89.77
2022-12-15T23:40:13.357Z,89.77
2022-12-15T23:42:41.292Z,89.94
2022-12-15T23:45:09.603Z,89.85
2022-12-15T23:47:37.570Z,89.75
2022-12-15T23:50:05.951Z,89.49
2022-12-15T23:52:34.216Z,90.03
2022-12-15T23:55:02.421Z,90.38
2022-12-15T23:57:30.449Z,89.93
2022-12-15T23:59:58.382Z,89.92
